This is the latest recevied weather packets stored in our database for station/object WB0OCV. If no packets are shown the sender has not sent any weather packets the latest 10 day(s).
| Time | Temp. | Humidity | Pressure | Rain* | Wind** | Luminosity | Snow |
|---|---|---|---|---|---|---|---|
| 1777876297 | 7.78° C | 87% | 1013.5 hPa | 0 mm | - | 0 W/m² | - |
| 1777875992 | 7.78° C | 88% | 1013.2 hPa | 0 mm | - | 0 W/m² | - |
| 1777875688 | 7.78° C | 88% | 1013.2 hPa | 0 mm | - | 0 W/m² | - |
| 1777875386 | 7.78° C | 87% | 1013.3 hPa | 0 mm | - | 0 W/m² | - |
| 1777875082 | 7.78° C | 87% | 1013.4 hPa | 0 mm | - | 0 W/m² | - |
| 1777874779 | 7.78° C | 86% | 1013.4 hPa | 0 mm | - | 0 W/m² | - |
| 1777874474 | 7.78° C | 85% | 1013.1 hPa | 0 mm | - | 0 W/m² | - |
| 1777874173 | 7.78° C | 85% | 1013.2 hPa | 0 mm | - | 0 W/m² | - |
| 1777873869 | 7.78° C | 85% | 1013.3 hPa | 0 mm | - | 0 W/m² | - |
| 1777873566 | 7.78° C | 85% | 1013.2 hPa | 0 mm | - | 0 W/m² | - |
| 1777873264 | 7.22° C | 85% | 1013.4 hPa | 0 mm | - | 0 W/m² | - |
| 1777872960 | 7.22° C | 85% | 1013.4 hPa | 0 mm | - | 0 W/m² | - |
| 1777872657 | 6.67° C | 86% | 1013.3 hPa | 0 mm | - | 0 W/m² | - |
| 1777872354 | 6.67° C | 85% | 1013.3 hPa | 0 mm | - | 0 W/m² | - |
| 1777872053 | 6.67° C | 84% | 1013.4 hPa | 0 mm | - | 0 W/m² | - |
| 1777871749 | 7.22° C | 82% | 1013.4 hPa | 0 mm | - | 0 W/m² | - |
| 1777871445 | 7.22° C | 80% | 1013.2 hPa | 0 mm | - | 0 W/m² | - |
| 1777871142 | 7.22° C | 78% | 1013.3 hPa | 0 mm | - | 0 W/m² | - |
| 1777870839 | 6.67° C | 75% | 1013.2 hPa | 0 mm | - | 0 W/m² | - |
| 1777870536 | 6.11° C | 78% | 1013.2 hPa | 0 mm | - | 0 W/m² | - |
| 1777870232 | 6.11° C | 79% | 1013.2 hPa | 0 mm | - | 0 W/m² | - |
| 1777869929 | 5.56° C | 81% | 1013.3 hPa | 0 mm | - | 0 W/m² | - |
| 1777869626 | 5° C | 83% | 1013.4 hPa | 0 mm | - | 0 W/m² | - |
| 1777869323 | 4.44° C | 85% | 1013.4 hPa | 0 mm | - | 0 W/m² | - |
| 1777869021 | 4.44° C | 85% | 1013.5 hPa | 0 mm | - | 0 W/m² | - |
* Rain latest hour (hover to see other rain measurements)
** Current wind speed in m/s (hover to see current wind gust speed)